createdAt,value
2019-01-24T00:01:50.075Z,-1.47
2019-01-24T00:04:16.883Z,-1.51
2019-01-24T00:06:43.090Z,-1.58
2019-01-24T00:09:09.230Z,-1.52
2019-01-24T00:11:37.862Z,-1.52
2019-01-24T00:14:04.098Z,-1.53
2019-01-24T00:16:32.695Z,-1.69
2019-01-24T00:18:58.553Z,-1.85
2019-01-24T00:21:24.687Z,-1.90
2019-01-24T00:23:50.480Z,-1.77
2019-01-24T00:26:16.337Z,-1.78
2019-01-24T00:28:42.211Z,-1.76
2019-01-24T00:31:08.018Z,-1.77
2019-01-24T00:33:39.603Z,-1.63
2019-01-24T00:36:05.697Z,-1.58
2019-01-24T00:38:31.534Z,-1.62
2019-01-24T00:40:57.385Z,-1.71
2019-01-24T00:43:29.004Z,-1.74
2019-01-24T00:45:54.857Z,-1.74
2019-01-24T00:48:23.701Z,-1.70
2019-01-24T00:50:49.982Z,-1.73
2019-01-24T00:53:15.816Z,-1.75
2019-01-24T00:55:41.670Z,-1.69
2019-01-24T00:58:07.496Z,-1.71
2019-01-24T01:00:33.406Z,-1.71
2019-01-24T01:02:59.247Z,-1.76
2019-01-24T01:05:28.373Z,-1.75
2019-01-24T01:07:54.217Z,-1.76
2019-01-24T01:10:23.107Z,-1.75
2019-01-24T01:12:49.303Z,-1.71
2019-01-24T01:15:18.229Z,-1.78
2019-01-24T01:17:45.032Z,-1.95
2019-01-24T01:20:19.150Z,-1.94
2019-01-24T01:22:45.395Z,-2.06
2019-01-24T01:25:11.719Z,-2.07
2019-01-24T01:27:37.641Z,-2.00
2019-01-24T01:30:07.273Z,-1.94
2019-01-24T01:32:33.220Z,-1.92
2019-01-24T01:34:59.065Z,-1.85
2019-01-24T01:37:25.164Z,-1.88
2019-01-24T01:39:51.264Z,-1.79
2019-01-24T01:42:17.206Z,-1.78
2019-01-24T01:44:43.021Z,-1.77
2019-01-24T01:47:08.832Z,-1.84
2019-01-24T01:49:34.938Z,-1.87
2019-01-24T01:52:04.063Z,-1.98
2019-01-24T01:54:29.909Z,-1.92
2019-01-24T01:56:56.975Z,-1.90
2019-01-24T01:59:22.813Z,-1.86
2019-01-24T02:01:51.996Z,-1.94
2019-01-24T02:04:17.834Z,-1.92
2019-01-24T02:06:48.841Z,-1.87
2019-01-24T02:09:14.675Z,-1.81
2019-01-24T02:11:40.502Z,-1.76
2019-01-24T02:14:06.353Z,-1.73
2019-01-24T02:16:32.211Z,-1.74
2019-01-24T02:18:58.062Z,-1.75
2019-01-24T02:21:24.224Z,-1.74
2019-01-24T02:23:53.339Z,-1.76
2019-01-24T02:26:19.442Z,-1.75
2019-01-24T02:28:47.745Z,-1.75
2019-01-24T02:31:13.883Z,-1.87
2019-01-24T02:33:44.671Z,-1.87
2019-01-24T02:36:10.741Z,-1.85
2019-01-24T02:38:39.592Z,-1.77
2019-01-24T02:41:05.406Z,-1.72
2019-01-24T02:43:34.103Z,-1.68
2019-01-24T02:45:59.930Z,-1.69
2019-01-24T02:48:25.861Z,-1.63
2019-01-24T02:50:51.685Z,-1.61
2019-01-24T02:53:17.555Z,-1.61
2019-01-24T02:55:43.357Z,-1.65
2019-01-24T02:58:09.198Z,-1.74
2019-01-24T03:00:39.775Z,-1.84
2019-01-24T03:03:05.576Z,-1.83
2019-01-24T03:05:34.446Z,-1.93
2019-01-24T03:08:00.283Z,-1.86
2019-01-24T03:10:29.137Z,-1.89
2019-01-24T03:12:54.961Z,-1.82
2019-01-24T03:15:23.830Z,-1.81
2019-01-24T03:17:50.041Z,-1.93
2019-01-24T03:20:17.387Z,-1.89
2019-01-24T03:22:43.719Z,-1.91
2019-01-24T03:25:11.734Z,-1.85
2019-01-24T03:27:37.594Z,-1.73
2019-01-24T03:30:06.823Z,-1.71
2019-01-24T03:32:32.625Z,-1.71
2019-01-24T03:35:04.108Z,-1.70
2019-01-24T03:37:26.195Z,-1.67
2019-01-24T03:39:52.300Z,-1.71
2019-01-24T03:42:18.501Z,-1.70
2019-01-24T03:44:44.635Z,-1.68
2019-01-24T03:47:13.512Z,-1.66
2019-01-24T03:49:39.323Z,-1.64
2019-01-24T03:52:08.212Z,-1.64
2019-01-24T03:54:34.038Z,-1.84
2019-01-24T03:57:02.984Z,-1.92
2019-01-24T03:59:29.185Z,-2.00
2019-01-24T04:01:55.023Z,-2.00
2019-01-24T04:04:21.161Z,-2.08
2019-01-24T04:06:46.976Z,-2.16
2019-01-24T04:09:13.918Z,-2.12
2019-01-24T04:11:40.012Z,-1.96
2019-01-24T04:14:08.953Z,-1.95
2019-01-24T04:16:34.806Z,-1.89
2019-01-24T04:19:03.480Z,-1.87
2019-01-24T04:21:29.339Z,-1.82
2019-01-24T04:23:58.699Z,-1.82
2019-01-24T04:26:24.557Z,-1.91
2019-01-24T04:28:55.342Z,-1.89
2019-01-24T04:31:21.157Z,-1.93
2019-01-24T04:33:49.771Z,-2.04
2019-01-24T04:36:15.587Z,-2.05
2019-01-24T04:38:41.468Z,-2.14
2019-01-24T04:41:07.577Z,-2.07
2019-01-24T04:43:33.384Z,-2.18
2019-01-24T04:45:59.356Z,-2.12
2019-01-24T04:48:25.175Z,-2.10
2019-01-24T04:50:54.122Z,-2.17
2019-01-24T04:53:19.981Z,-2.06
2019-01-24T04:55:50.386Z,-2.05
2019-01-24T04:58:16.453Z,-2.18
2019-01-24T05:00:43.496Z,-2.16
2019-01-24T05:03:09.309Z,-2.20
2019-01-24T05:05:38.025Z,-2.27
2019-01-24T05:08:04.225Z,-2.44
2019-01-24T05:10:32.845Z,-2.37
2019-01-24T05:12:58.658Z,-2.24
2019-01-24T05:15:24.815Z,-2.21
2019-01-24T05:17:50.627Z,-2.13
2019-01-24T05:20:16.873Z,-2.19
2019-01-24T05:22:45.735Z,-2.21
2019-01-24T05:25:14.048Z,-2.24
2019-01-24T05:27:39.885Z,-2.24
2019-01-24T05:30:09.566Z,-2.25
2019-01-24T05:32:35.424Z,-2.27
2019-01-24T05:35:01.272Z,-2.47
2019-01-24T05:37:30.219Z,-2.35
2019-01-24T05:39:56.049Z,-2.36
2019-01-24T05:42:24.779Z,-2.33
2019-01-24T05:44:50.659Z,-2.34
2019-01-24T05:47:18.490Z,-2.32
2019-01-24T05:49:44.335Z,-2.41
2019-01-24T05:52:10.130Z,-2.34
2019-01-24T05:54:35.932Z,-2.30
2019-01-24T05:57:02.062Z,-2.41
2019-01-24T05:59:30.642Z,-2.31
2019-01-24T06:01:56.857Z,-2.36
2019-01-24T06:04:25.575Z,-2.40
2019-01-24T06:06:51.419Z,-2.54
2019-01-24T06:09:20.091Z,-2.44
2019-01-24T06:11:46.032Z,-2.48
2019-01-24T06:14:14.679Z,-2.34
2019-01-24T06:16:40.488Z,-2.37
2019-01-24T06:19:09.438Z,-2.33
2019-01-24T06:21:35.369Z,-2.28
2019-01-24T06:24:04.049Z,-2.18
2019-01-24T06:26:30.154Z,-2.18
2019-01-24T06:28:55.968Z,-2.16
2019-01-24T06:31:21.796Z,-2.13
2019-01-24T06:33:47.902Z,-2.07
2019-01-24T06:36:16.781Z,-2.03
2019-01-24T06:38:42.877Z,-2.03
2019-01-24T06:41:10.025Z,-2.06
2019-01-24T06:43:35.859Z,-2.03
2019-01-24T06:46:06.754Z,-2.05
2019-01-24T06:48:32.855Z,-2.09
2019-01-24T06:51:01.454Z,-2.15
2019-01-24T06:53:27.285Z,-2.18
2019-01-24T06:55:56.209Z,-2.14
2019-01-24T06:58:22.080Z,-2.22
2019-01-24T07:00:50.952Z,-2.25
2019-01-24T07:03:17.042Z,-2.28
2019-01-24T07:05:43.139Z,-2.32
2019-01-24T07:08:09.209Z,-2.39
2019-01-24T07:10:35.269Z,-2.39
2019-01-24T07:13:01.118Z,-2.31
2019-01-24T07:15:26.943Z,-2.27
2019-01-24T07:17:55.827Z,-2.21
2019-01-24T07:20:21.714Z,-2.25
2019-01-24T07:22:50.570Z,-2.17
2019-01-24T07:25:25.299Z,-2.11
2019-01-24T07:27:51.135Z,-2.16
2019-01-24T07:30:18.255Z,-2.16
2019-01-24T07:32:44.187Z,-2.24
2019-01-24T07:35:12.009Z,-2.27
2019-01-24T07:37:38.149Z,-2.26
2019-01-24T07:40:07.499Z,-2.24
2019-01-24T07:42:33.358Z,-2.33
2019-01-24T07:44:59.173Z,-2.30
2019-01-24T07:47:25.304Z,-2.16
2019-01-24T07:49:51.472Z,-2.14
2019-01-24T07:52:17.295Z,-2.20
2019-01-24T07:54:43.448Z,-2.21
2019-01-24T07:57:09.281Z,-2.41
2019-01-24T07:59:35.421Z,-2.26
2019-01-24T08:02:01.273Z,-2.12
2019-01-24T08:04:29.884Z,-2.00
2019-01-24T08:06:55.678Z,-1.97
2019-01-24T08:09:25.263Z,-2.09
2019-01-24T08:11:51.104Z,-2.03
2019-01-24T08:14:21.828Z,-1.96
2019-01-24T08:16:47.643Z,-1.96
2019-01-24T08:19:13.490Z,-2.04
2019-01-24T08:21:39.320Z,-2.03
2019-01-24T08:24:05.164Z,-2.10
2019-01-24T08:26:34.081Z,-2.16
2019-01-24T08:29:00.028Z,-2.11
2019-01-24T08:31:25.841Z,-2.17
2019-01-24T08:33:51.953Z,-2.10
2019-01-24T08:36:20.528Z,-2.21
2019-01-24T08:38:46.339Z,-2.21
2019-01-24T08:41:15.459Z,-2.11
2019-01-24T08:43:41.308Z,-2.05
2019-01-24T08:46:09.931Z,-1.99
2019-01-24T08:48:35.730Z,-1.98
2019-01-24T08:51:04.610Z,-1.88
2019-01-24T08:53:30.725Z,-1.70
2019-01-24T08:55:56.585Z,-1.62
2019-01-24T08:58:22.398Z,-1.57
2019-01-24T09:00:48.527Z,-1.63
2019-01-24T09:03:17.224Z,-1.65
2019-01-24T09:05:43.048Z,-1.54
2019-01-24T09:08:11.910Z,-1.51
2019-01-24T09:10:38.342Z,-1.42
2019-01-24T09:13:06.957Z,-1.43
2019-01-24T09:15:33.151Z,-1.36
2019-01-24T09:18:02.431Z,-1.47
2019-01-24T09:20:28.657Z,-1.69
2019-01-24T09:22:57.269Z,-1.88
2019-01-24T09:25:23.110Z,-1.63
2019-01-24T09:27:50.243Z,-1.44
2019-01-24T09:30:21.950Z,-1.31
2019-01-24T09:32:48.040Z,-1.42
2019-01-24T09:35:14.272Z,-1.08
2019-01-24T09:37:40.105Z,-0.95
2019-01-24T09:40:12.735Z,-0.84
2019-01-24T09:42:38.941Z,-0.74
2019-01-24T09:45:08.501Z,-0.59
2019-01-24T09:47:34.576Z,-0.53
2019-01-24T09:50:00.414Z,-0.63
2019-01-24T09:52:26.485Z,-0.66
2019-01-24T09:54:52.330Z,-0.71
2019-01-24T09:57:18.179Z,-0.55
2019-01-24T09:59:44.247Z,-0.32
2019-01-24T10:02:10.064Z,-0.40
2019-01-24T10:04:36.172Z,-0.22
2019-01-24T10:07:02.051Z,-0.14
2019-01-24T10:09:27.855Z,-0.12
2019-01-24T10:11:53.697Z,-0.21
2019-01-24T10:14:19.516Z,-0.13
2019-01-24T10:16:48.123Z,-0.19
2019-01-24T10:19:13.929Z,-0.21
2019-01-24T10:21:42.568Z,-0.34
2019-01-24T10:24:08.688Z,-0.20
2019-01-24T10:26:37.557Z,-0.24
2019-01-24T10:29:03.441Z,-0.13
2019-01-24T10:31:33.384Z,-0.05
2019-01-24T10:33:59.181Z,-0.05
2019-01-24T10:36:26.541Z,-0.20
2019-01-24T10:38:52.671Z,-0.29
2019-01-24T10:41:21.381Z,-0.40
2019-01-24T10:43:47.463Z,-0.47
2019-01-24T10:46:13.539Z,-0.46
2019-01-24T10:48:39.394Z,-0.42
2019-01-24T10:51:05.393Z,-0.45
2019-01-24T10:53:32.634Z,-0.63
2019-01-24T10:55:58.495Z,-0.73
2019-01-24T10:58:29.017Z,-0.59
2019-01-24T11:00:54.821Z,-0.57
2019-01-24T11:03:21.942Z,-0.55
2019-01-24T11:05:47.870Z,-0.55
2019-01-24T11:08:17.075Z,-0.58
2019-01-24T11:10:43.011Z,-0.56
2019-01-24T11:13:12.030Z,-0.36
2019-01-24T11:15:37.899Z,-0.23
2019-01-24T11:18:06.630Z,-0.23
2019-01-24T11:20:32.430Z,-0.24
2019-01-24T11:22:58.273Z,-0.18
2019-01-24T11:25:25.425Z,-0.11
2019-01-24T11:27:51.331Z,-0.13
2019-01-24T11:30:24.010Z,-0.05
2019-01-24T11:32:50.266Z,-0.10
2019-01-24T11:35:18.419Z,-0.12
2019-01-24T11:37:44.345Z,-0.10
2019-01-24T11:40:16.520Z,0.01
2019-01-24T11:42:42.445Z,-0.09
2019-01-24T11:45:10.821Z,-0.17
2019-01-24T11:47:36.911Z,-0.29
2019-01-24T11:50:06.510Z,-0.27
2019-01-24T11:52:32.668Z,-0.29
2019-01-24T11:54:58.486Z,-0.32
2019-01-24T11:57:24.289Z,-0.38
2019-01-24T11:59:50.149Z,-0.47
2019-01-24T12:02:15.964Z,-0.60
2019-01-24T12:04:41.802Z,-0.51
2019-01-24T12:07:07.623Z,-0.45
2019-01-24T12:09:33.469Z,-0.45
2019-01-24T12:11:59.616Z,-0.49
2019-01-24T12:14:25.469Z,-0.43
2019-01-24T12:16:52.314Z,-0.56
2019-01-24T12:19:18.430Z,-0.66
2019-01-24T12:21:47.545Z,-0.80
2019-01-24T12:24:13.355Z,-0.85
2019-01-24T12:26:42.500Z,-0.90
2019-01-24T12:29:08.608Z,-0.99
2019-01-24T12:31:36.609Z,-1.00
2019-01-24T12:34:02.792Z,-0.95
2019-01-24T12:36:28.596Z,-0.86
2019-01-24T12:38:54.554Z,-0.90
2019-01-24T12:41:20.412Z,-0.91
2019-01-24T12:43:48.988Z,-0.87
2019-01-24T12:46:14.791Z,-0.81
2019-01-24T12:51:11.226Z,-0.69
2019-01-24T12:53:40.230Z,-0.84
2019-01-24T12:56:06.175Z,-0.86
2019-01-24T12:58:32.538Z,-0.94
2019-01-24T13:00:58.520Z,-0.88
2019-01-24T13:03:27.422Z,-0.89
2019-01-24T13:05:53.247Z,-0.90
2019-01-24T13:08:22.235Z,-0.79
2019-01-24T13:10:48.096Z,-0.78
2019-01-24T13:13:14.036Z,-1.17
2019-01-24T13:15:40.053Z,-0.76
2019-01-24T13:18:05.894Z,-0.58
2019-01-24T13:20:34.677Z,-0.57
2019-01-24T13:23:00.906Z,-0.50
2019-01-24T13:25:31.352Z,-0.48
2019-01-24T13:27:57.293Z,-0.49
2019-01-24T13:30:26.241Z,-0.57
2019-01-24T13:32:52.061Z,-0.57
2019-01-24T13:35:18.009Z,-0.66
2019-01-24T13:37:43.848Z,-0.67
2019-01-24T13:40:15.862Z,-0.75
2019-01-24T13:42:41.986Z,-0.64
2019-01-24T13:45:16.910Z,-0.61
2019-01-24T13:47:42.833Z,-0.66
2019-01-24T13:50:11.566Z,-0.67
2019-01-24T13:52:37.413Z,-0.66
2019-01-24T13:55:03.635Z,-0.65
2019-01-24T13:57:29.462Z,-0.70
2019-01-24T13:59:55.607Z,-0.72
2019-01-24T14:02:21.667Z,-0.79
2019-01-24T14:04:47.463Z,-1.03
2019-01-24T14:07:13.327Z,-1.05
2019-01-24T14:09:39.143Z,-1.07
2019-01-24T14:12:05.389Z,-0.84
2019-01-24T14:14:31.194Z,-0.68
2019-01-24T14:17:00.240Z,-0.83
2019-01-24T14:19:26.367Z,-0.94
2019-01-24T14:21:55.429Z,-0.96
2019-01-24T14:24:21.235Z,-0.95
2019-01-24T14:26:47.088Z,-0.97
2019-01-24T14:29:12.986Z,-0.93
2019-01-24T14:31:38.824Z,-0.81
2019-01-24T14:34:04.879Z,-1.08
2019-01-24T14:36:30.954Z,-0.84
2019-01-24T14:38:59.869Z,-0.78
2019-01-24T14:41:25.709Z,-0.77
2019-01-24T14:43:54.282Z,-1.01
2019-01-24T14:46:20.450Z,-1.00
2019-01-24T14:48:48.797Z,-0.96
2019-01-24T14:51:14.626Z,-0.98
2019-01-24T14:53:43.810Z,-1.01
2019-01-24T14:56:09.933Z,-0.88
2019-01-24T14:58:38.614Z,-0.82
2019-01-24T15:01:05.456Z,-0.93
2019-01-24T15:03:31.303Z,-1.00
2019-01-24T15:05:57.105Z,-0.87
2019-01-24T15:08:22.940Z,-0.95
2019-01-24T15:10:52.211Z,-0.90
2019-01-24T15:13:18.029Z,-1.07
2019-01-24T15:15:47.190Z,-1.09
2019-01-24T15:18:13.279Z,-1.13
2019-01-24T15:20:39.486Z,-1.16
2019-01-24T15:23:05.354Z,-1.91
2019-01-24T15:25:36.262Z,-1.51
2019-01-24T15:28:02.090Z,-1.47
2019-01-24T15:30:30.921Z,-1.37
2019-01-24T15:32:57.138Z,-1.53
2019-01-24T15:35:26.152Z,-1.41
2019-01-24T15:37:54.711Z,-1.42
2019-01-24T15:40:22.428Z,-1.51
2019-01-24T15:42:48.239Z,-1.37
2019-01-24T15:45:15.587Z,-1.31
2019-01-24T15:47:41.814Z,-1.39
2019-01-24T15:50:10.746Z,-1.46
2019-01-24T15:52:36.625Z,-1.43
2019-01-24T15:55:04.272Z,-1.44
2019-01-24T15:57:30.085Z,-1.33
2019-01-24T15:59:55.944Z,-1.35
2019-01-24T16:02:21.765Z,-1.37
2019-01-24T16:04:47.580Z,-1.36
2019-01-24T16:07:14.918Z,-1.33
2019-01-24T16:09:40.733Z,-1.36
2019-01-24T16:12:09.639Z,-1.49
2019-01-24T16:14:35.766Z,-1.70
2019-01-24T16:17:01.585Z,-1.70
2019-01-24T16:19:27.425Z,-1.64
2019-01-24T16:21:53.529Z,-1.56
2019-01-24T16:24:22.465Z,-1.69
2019-01-24T16:26:48.294Z,-1.67
2019-01-24T16:29:17.370Z,-1.62
2019-01-24T16:31:43.199Z,-1.59
2019-01-24T16:34:12.200Z,-1.67
2019-01-24T16:36:38.347Z,-1.71
2019-01-24T16:39:06.331Z,-1.74
2019-01-24T16:41:32.142Z,-1.74
2019-01-24T16:43:59.427Z,-1.73
2019-01-24T16:46:25.265Z,-1.64
2019-01-24T16:48:55.678Z,-1.70
2019-01-24T16:51:21.728Z,-1.72
2019-01-24T16:53:47.915Z,-1.66
2019-01-24T16:56:13.801Z,-1.64
2019-01-24T16:58:39.710Z,-1.65
2019-01-24T17:01:05.726Z,-1.66
2019-01-24T17:03:31.550Z,-1.68
2019-01-24T17:06:00.468Z,-1.69
2019-01-24T17:08:26.278Z,-1.81
2019-01-24T17:10:55.197Z,-1.81
2019-01-24T17:13:21.416Z,-1.80
2019-01-24T17:15:50.289Z,-1.81
2019-01-24T17:18:16.101Z,-1.80
2019-01-24T17:20:44.930Z,-1.87
2019-01-24T17:23:11.034Z,-1.89
2019-01-24T17:25:39.647Z,-2.07
2019-01-24T17:28:05.711Z,-2.14
2019-01-24T17:30:31.921Z,-2.13
2019-01-24T17:32:58.058Z,-2.05
2019-01-24T17:35:24.102Z,-2.00
2019-01-24T17:37:53.141Z,-2.01
2019-01-24T17:40:34.767Z,-1.96
2019-01-24T17:43:00.868Z,-1.92
2019-01-24T17:45:27.353Z,-1.89
2019-01-24T17:47:53.250Z,-1.84
2019-01-24T17:50:19.506Z,-1.76
2019-01-24T17:52:45.331Z,-1.75
2019-01-24T17:55:37.334Z,-1.78
2019-01-24T17:58:04.843Z,-1.83
2019-01-24T18:00:32.860Z,-1.89
2019-01-24T18:02:58.735Z,-1.82
2019-01-24T18:05:24.629Z,-1.81
2019-01-24T18:07:50.771Z,-1.85
2019-01-24T18:10:24.864Z,-1.83
2019-01-24T18:12:50.990Z,-1.78
2019-01-24T18:15:22.255Z,-1.76
2019-01-24T18:17:48.108Z,-1.84
2019-01-24T18:20:18.284Z,-1.99
2019-01-24T18:22:44.283Z,-1.92
2019-01-24T18:25:10.161Z,-1.84
2019-01-24T18:27:36.223Z,-1.73
2019-01-24T18:30:05.159Z,-1.76
2019-01-24T18:32:30.975Z,-2.01
2019-01-24T18:34:57.153Z,-1.73
2019-01-24T18:37:23.002Z,-1.76
2019-01-24T18:39:48.790Z,-1.70
2019-01-24T18:42:14.742Z,-1.67
2019-01-24T18:44:40.543Z,-1.63
2019-01-24T18:47:06.771Z,-1.75
2019-01-24T18:49:32.868Z,-1.72
2019-01-24T18:51:58.897Z,-1.72
2019-01-24T18:54:24.726Z,-1.75
2019-01-24T18:56:50.654Z,-1.75
2019-01-24T18:59:16.562Z,-1.75
2019-01-24T19:01:42.675Z,-1.76
2019-01-24T19:04:08.502Z,-1.83
2019-01-24T19:06:34.360Z,-1.82
2019-01-24T19:09:00.192Z,-2.16
2019-01-24T19:11:26.007Z,-1.92
2019-01-24T19:13:52.086Z,-1.91
2019-01-24T19:16:17.907Z,-1.91
2019-01-24T19:18:43.971Z,-2.00
2019-01-24T19:21:09.924Z,-2.05
2019-01-24T19:23:35.732Z,-2.04
2019-01-24T19:26:01.556Z,-2.03
2019-01-24T19:28:27.415Z,-2.13
2019-01-24T19:30:53.538Z,-2.19
2019-01-24T19:33:19.466Z,-2.35
2019-01-24T19:35:45.305Z,-2.49
2019-01-24T19:38:11.413Z,-2.50
2019-01-24T19:40:37.252Z,-2.49
2019-01-24T19:43:03.192Z,-2.50
2019-01-24T19:45:29.106Z,-2.39
2019-01-24T19:47:54.921Z,-2.30
2019-01-24T19:50:25.629Z,-2.29
2019-01-24T19:52:51.572Z,-2.34
2019-01-24T19:55:17.502Z,-2.33
2019-01-24T19:57:43.753Z,-2.36
2019-01-24T20:00:21.728Z,-2.31
2019-01-24T20:02:48.030Z,-2.24
2019-01-24T20:05:15.584Z,-2.22
2019-01-24T20:07:41.498Z,-2.24
2019-01-24T20:10:19.022Z,-2.13
2019-01-24T20:12:45.182Z,-2.09
2019-01-24T20:15:14.708Z,-2.13
2019-01-24T20:17:40.702Z,-2.06
2019-01-24T20:20:09.889Z,-2.04
2019-01-24T20:22:35.931Z,-2.10
2019-01-24T20:25:02.146Z,-2.11
2019-01-24T20:27:27.976Z,-2.10
2019-01-24T20:29:53.789Z,-2.36
2019-01-24T20:32:19.637Z,-2.00
2019-01-24T20:34:45.438Z,-1.93
2019-01-24T20:37:11.294Z,-1.92
2019-01-24T20:39:37.398Z,-1.97
2019-01-24T20:42:03.373Z,-1.87
2019-01-24T20:44:29.497Z,-1.98
2019-01-24T20:46:55.327Z,-2.07
2019-01-24T20:49:21.148Z,-2.22
2019-01-24T20:51:47.257Z,-2.25
2019-01-24T20:54:13.062Z,-2.20
2019-01-24T20:56:39.052Z,-2.21
2019-01-24T20:59:05.094Z,-2.17
2019-01-24T21:01:30.912Z,-2.13
2019-01-24T21:03:56.775Z,-2.18
2019-01-24T21:06:22.584Z,-2.18
2019-01-24T21:08:48.691Z,-2.26
2019-01-24T21:11:14.533Z,-2.21
2019-01-24T21:13:40.359Z,-2.17
2019-01-24T21:16:06.592Z,-2.15
2019-01-24T21:18:32.397Z,-2.14
2019-01-24T21:20:58.247Z,-2.22
2019-01-24T21:23:24.073Z,-2.24
2019-01-24T21:25:49.903Z,-2.21
2019-01-24T21:28:15.851Z,-2.25
2019-01-24T21:30:41.643Z,-2.23
2019-01-24T21:33:07.602Z,-2.20
2019-01-24T21:35:33.525Z,-2.14
2019-01-24T21:38:01.895Z,-2.18
2019-01-24T21:40:27.932Z,-2.26
2019-01-24T21:42:58.948Z,-2.27
2019-01-24T21:45:27.293Z,-2.26
2019-01-24T21:47:53.248Z,-2.36
2019-01-24T21:50:21.473Z,-2.36
2019-01-24T21:52:47.347Z,-2.30
2019-01-24T21:55:14.016Z,-2.34
2019-01-24T21:57:40.162Z,-2.22
2019-01-24T22:00:18.574Z,-2.21
2019-01-24T22:02:44.676Z,-2.15
2019-01-24T22:05:12.321Z,-2.17
2019-01-24T22:07:38.281Z,-2.16
2019-01-24T22:10:07.915Z,-2.27
2019-01-24T22:12:34.038Z,-2.28
2019-01-24T22:15:00.242Z,-2.33
2019-01-24T22:17:26.347Z,-2.28
2019-01-24T22:19:52.441Z,-2.23
2019-01-24T22:22:18.269Z,-2.22
2019-01-24T22:24:44.077Z,-2.15
2019-01-24T22:27:10.024Z,-2.15
2019-01-24T22:29:35.875Z,-2.10
2019-01-24T22:32:01.721Z,-2.10
2019-01-24T22:34:27.647Z,-2.08
2019-01-24T22:36:53.455Z,-2.12
2019-01-24T22:39:19.292Z,-2.16
2019-01-24T22:41:45.188Z,-2.07
2019-01-24T22:44:11.460Z,-2.03
2019-01-24T22:46:37.334Z,-2.42
2019-01-24T22:49:03.362Z,-1.99
2019-01-24T22:51:32.369Z,-1.93
2019-01-24T22:53:58.205Z,-1.91
2019-01-24T22:56:26.782Z,-1.89
2019-01-24T22:58:53.020Z,-1.93
2019-01-24T23:01:22.938Z,-1.96
2019-01-24T23:03:49.002Z,-1.96
2019-01-24T23:06:15.146Z,-2.01
2019-01-24T23:08:41.452Z,-2.13
2019-01-24T23:11:07.615Z,-2.10
2019-01-24T23:13:33.462Z,-2.22
2019-01-24T23:15:59.269Z,-2.14
2019-01-24T23:18:28.378Z,-2.05
2019-01-24T23:20:54.217Z,-1.97
2019-01-24T23:23:24.558Z,-1.98
2019-01-24T23:25:50.686Z,-2.16
2019-01-24T23:28:18.172Z,-2.38
2019-01-24T23:30:44.020Z,-2.35
2019-01-24T23:33:12.704Z,-2.35
2019-01-24T23:35:38.526Z,-2.28
2019-01-24T23:38:04.596Z,-2.22
2019-01-24T23:40:30.654Z,-2.28
2019-01-24T23:42:56.668Z,-2.35
2019-01-24T23:45:25.796Z,-2.44
2019-01-24T23:47:51.907Z,-2.42
2019-01-24T23:50:21.045Z,-2.42
2019-01-24T23:52:47.142Z,-2.31
2019-01-24T23:55:16.017Z,-2.31
2019-01-24T23:57:41.818Z,-2.32
